Terminal Aerodrome Forecast
Issued by NWS

Home | Current Version | Previous Version | Text Only | Print | Product List | Glossary On
Versions: 1 2 3 4 5 6 7 8 9 10 11 12 13 14 15 16 17 18 19 20
000
FTUS45 KREV 232300
TAFRNO
TAF
KRNO 232333Z 2400/2424 30010KT P6SM FEW080 SCT200
     FM240300 VRB03KT P6SM FEW120 SCT200
     FM242000 24015G30KT P6SM SCT100 BKN200=

USA.gov is the U.S. government's official web portal to all federal, state and local government web resources and services.